createdAt,value
2023-03-08T00:02:03.095Z,98704.53
2023-03-08T00:04:33.723Z,98658.41
2023-03-08T00:07:08.082Z,98693.25
2023-03-08T00:09:38.945Z,98693.06
2023-03-08T00:14:50.165Z,98693.28
2023-03-08T00:17:20.168Z,98704.88
2023-03-08T00:19:49.502Z,98686.38
2023-03-08T00:22:20.596Z,98690.56
2023-03-08T00:24:49.881Z,98709.31
2023-03-08T00:27:19.096Z,98701.75
2023-03-08T00:29:48.458Z,98705.00
2023-03-08T00:32:18.407Z,98711.53
2023-03-08T00:34:48.506Z,98703.56
2023-03-08T00:37:19.682Z,98714.69
2023-03-08T00:39:54.529Z,98709.47
2023-03-08T00:45:00.921Z,98714.00
2023-03-08T00:47:30.257Z,98687.16
2023-03-08T00:49:59.583Z,98702.63
2023-03-08T00:52:35.742Z,98716.94
2023-03-08T00:55:04.924Z,98703.06
2023-03-08T00:57:34.406Z,98715.75
2023-03-08T01:00:07.959Z,98722.53
2023-03-08T01:02:37.193Z,98729.22
2023-03-08T01:05:06.909Z,98704.38
2023-03-08T01:07:43.210Z,98724.00
2023-03-08T01:10:13.572Z,98710.31
2023-03-08T01:12:44.155Z,98718.06
2023-03-08T01:15:15.838Z,98713.09
2023-03-08T01:17:45.326Z,98715.47
2023-03-08T01:20:15.395Z,98708.63
2023-03-08T01:22:46.461Z,98704.09
2023-03-08T01:25:15.774Z,98699.78
2023-03-08T01:27:44.945Z,98716.03
2023-03-08T01:30:20.286Z,98709.13
2023-03-08T01:32:49.448Z,98710.81
2023-03-08T01:35:20.817Z,98705.84
2023-03-08T01:37:54.952Z,98697.38
2023-03-08T01:40:29.626Z,98696.00
2023-03-08T01:43:23.368Z,98682.25
2023-03-08T01:46:32.076Z,98688.13
2023-03-08T01:49:16.105Z,98699.78
2023-03-08T01:51:54.072Z,98693.56
2023-03-08T01:54:30.626Z,98694.22
2023-03-08T01:57:05.182Z,98696.69
2023-03-08T01:59:35.746Z,98699.00
2023-03-08T02:02:04.936Z,98655.97
2023-03-08T02:04:38.949Z,98664.16
2023-03-08T02:07:12.228Z,98673.56
2023-03-08T02:09:44.614Z,98668.25
2023-03-08T02:12:20.470Z,98695.34
2023-03-08T02:14:50.145Z,98684.47
2023-03-08T02:17:19.301Z,98690.41
2023-03-08T02:19:54.837Z,98705.53
2023-03-08T02:22:24.336Z,98712.41
2023-03-08T02:24:55.419Z,98677.00
2023-03-08T02:27:27.954Z,98673.97
2023-03-08T02:29:57.146Z,98719.94
2023-03-08T02:32:26.257Z,98688.59
2023-03-08T02:34:55.499Z,98713.47
2023-03-08T02:37:24.702Z,98709.09
2023-03-08T02:39:55.987Z,98714.13
2023-03-08T02:42:30.337Z,98714.13
2023-03-08T02:45:04.604Z,98695.59
2023-03-08T02:47:35.641Z,98711.56
2023-03-08T02:50:11.491Z,98715.31
2023-03-08T02:52:41.027Z,98716.59
2023-03-08T02:55:13.177Z,98721.53
2023-03-08T02:57:42.688Z,98688.50
2023-03-08T03:00:13.345Z,98703.41
2023-03-08T03:05:22.649Z,98725.03
2023-03-08T03:07:52.141Z,98709.94
2023-03-08T03:10:29.990Z,98733.19
2023-03-08T03:12:59.578Z,98726.22
2023-03-08T03:15:32.481Z,98707.16
2023-03-08T03:18:02.229Z,98728.28
2023-03-08T03:20:31.273Z,98736.88
2023-03-08T03:23:01.009Z,98734.34
2023-03-08T03:25:42.976Z,98738.47
2023-03-08T03:28:20.239Z,98740.88
2023-03-08T03:30:50.676Z,98740.16
2023-03-08T03:33:19.926Z,98735.31
2023-03-08T03:35:54.584Z,98743.06
2023-03-08T03:38:24.556Z,98738.91
2023-03-08T03:41:10.139Z,98723.44
2023-03-08T03:43:40.606Z,98736.88
2023-03-08T03:46:17.864Z,98738.91
2023-03-08T03:48:50.014Z,98723.78
2023-03-08T03:51:24.116Z,98734.81
2023-03-08T03:54:02.929Z,98723.97
2023-03-08T03:56:34.678Z,98736.97
2023-03-08T03:59:04.528Z,98734.63
2023-03-08T04:01:34.288Z,98702.88
2023-03-08T04:04:15.622Z,98730.03
2023-03-08T04:06:46.880Z,98736.16
2023-03-08T04:09:25.506Z,98726.25
2023-03-08T04:12:10.359Z,98739.91
2023-03-08T04:14:41.984Z,98744.28
2023-03-08T04:17:13.972Z,98739.59
2023-03-08T04:19:57.595Z,98736.28
2023-03-08T04:22:37.133Z,98740.75
2023-03-08T04:25:17.836Z,98738.22
2023-03-08T04:27:55.574Z,98750.41
2023-03-08T04:30:31.454Z,98747.31
2023-03-08T04:33:02.621Z,98753.44
2023-03-08T04:35:45.041Z,98754.59
2023-03-08T04:38:15.512Z,98692.09
2023-03-08T04:41:11.809Z,98752.97
2023-03-08T04:44:02.636Z,98773.19
2023-03-08T04:46:46.479Z,98701.94
2023-03-08T04:49:21.698Z,98760.78
2023-03-08T04:51:55.639Z,98778.81
2023-03-08T04:54:27.581Z,98778.88
2023-03-08T04:57:03.524Z,98777.34
2023-03-08T04:59:37.187Z,98781.25
2023-03-08T05:02:08.537Z,98787.28
2023-03-08T05:04:40.361Z,98788.50
2023-03-08T05:07:15.452Z,98791.19
2023-03-08T05:09:46.072Z,98787.09
2023-03-08T05:12:16.140Z,98769.56
2023-03-08T05:15:00.561Z,98776.59
2023-03-08T05:17:32.412Z,98766.53
2023-03-08T05:20:02.015Z,98761.59
2023-03-08T05:22:55.088Z,98770.41
2023-03-08T05:25:28.205Z,98763.88
2023-03-08T05:27:57.541Z,98771.69
2023-03-08T05:30:47.635Z,98770.25
2023-03-08T05:33:27.040Z,98760.91
2023-03-08T05:35:57.084Z,98761.75
2023-03-08T05:38:31.682Z,98766.06
2023-03-08T05:41:03.372Z,98761.34
2023-03-08T05:46:18.472Z,98763.38
2023-03-08T05:48:48.654Z,98757.69
2023-03-08T05:51:21.380Z,98757.28
2023-03-08T05:53:56.275Z,98742.53
2023-03-08T05:56:26.501Z,98752.13
2023-03-08T05:59:07.248Z,98722.25
2023-03-08T06:01:38.301Z,98755.59
2023-03-08T06:04:30.384Z,98732.19
2023-03-08T06:07:00.037Z,98757.06
2023-03-08T06:09:35.755Z,98748.53
2023-03-08T06:12:06.501Z,98757.34
2023-03-08T06:14:36.809Z,98755.69
2023-03-08T06:17:08.143Z,98748.31
2023-03-08T06:19:42.953Z,98758.31
2023-03-08T06:22:14.111Z,98752.94
2023-03-08T06:24:43.326Z,98758.28
2023-03-08T06:27:12.534Z,98713.72
2023-03-08T06:29:49.546Z,98765.97
2023-03-08T06:32:21.219Z,98762.66
2023-03-08T06:34:50.798Z,98737.72
2023-03-08T06:37:20.380Z,98760.22
2023-03-08T06:39:49.688Z,98752.66
2023-03-08T06:42:25.786Z,98764.69
2023-03-08T06:45:00.776Z,98753.69
2023-03-08T06:47:39.085Z,98751.84
2023-03-08T06:50:09.080Z,98746.78
2023-03-08T06:52:40.421Z,98742.41
2023-03-08T06:55:12.311Z,98722.22
2023-03-08T06:57:46.650Z,98721.38
2023-03-08T07:00:17.018Z,98723.44
2023-03-08T07:02:54.346Z,98710.38
2023-03-08T07:05:24.442Z,98722.41
2023-03-08T07:07:53.639Z,98659.72
2023-03-08T07:10:24.171Z,98687.16
2023-03-08T07:12:53.546Z,98690.03
2023-03-08T07:15:28.327Z,98675.50
2023-03-08T07:18:00.662Z,98683.00
2023-03-08T07:20:30.190Z,98645.59
2023-03-08T07:23:01.288Z,98679.00
2023-03-08T07:25:31.649Z,98654.34
2023-03-08T07:28:01.940Z,98670.75
2023-03-08T07:30:31.263Z,98636.69
2023-03-08T07:33:02.493Z,98657.44
2023-03-08T07:35:31.788Z,98651.28
2023-03-08T07:38:01.275Z,98638.22
2023-03-08T07:40:30.680Z,98647.28
2023-03-08T07:43:00.281Z,98653.47
2023-03-08T07:45:46.392Z,98608.63
2023-03-08T07:48:17.522Z,98642.81
2023-03-08T07:50:52.055Z,98655.41
2023-03-08T07:53:27.947Z,98663.03
2023-03-08T07:56:00.828Z,98663.00
2023-03-08T07:58:31.360Z,98654.63
2023-03-08T08:01:00.687Z,98653.91
2023-03-08T08:03:33.233Z,98660.03
2023-03-08T08:06:05.679Z,98653.44
2023-03-08T08:08:35.384Z,98625.53
2023-03-08T08:11:04.391Z,98628.13
2023-03-08T08:13:39.839Z,98636.50
2023-03-08T08:16:09.557Z,98647.28
2023-03-08T08:18:41.404Z,98637.06
2023-03-08T08:21:11.098Z,98634.88
2023-03-08T08:23:41.026Z,98631.59
2023-03-08T08:26:17.827Z,98624.13
2023-03-08T08:28:48.675Z,98626.53
2023-03-08T08:31:25.411Z,98619.56
2023-03-08T08:33:56.745Z,98624.72
2023-03-08T08:36:26.341Z,98614.53
2023-03-08T08:38:56.069Z,98633.34
2023-03-08T08:41:32.668Z,98633.16
2023-03-08T08:44:02.313Z,98616.88
2023-03-08T08:46:33.765Z,98632.38
2023-03-08T08:49:06.538Z,98633.31
2023-03-08T08:51:35.781Z,98619.69
2023-03-08T08:54:05.469Z,98626.59
2023-03-08T08:56:35.177Z,98601.13
2023-03-08T08:59:05.633Z,98620.94
2023-03-08T09:01:43.331Z,98611.53
2023-03-08T09:04:20.333Z,98602.13
2023-03-08T09:06:49.693Z,98610.47
2023-03-08T09:09:20.135Z,98581.13
2023-03-08T09:11:55.989Z,98604.66
2023-03-08T09:14:25.489Z,98601.31
2023-03-08T09:17:00.314Z,98576.59
2023-03-08T09:19:31.599Z,98586.94
2023-03-08T09:22:00.749Z,98590.44
2023-03-08T09:24:29.954Z,98575.06
2023-03-08T09:26:59.270Z,98581.88
2023-03-08T09:29:28.550Z,98578.63
2023-03-08T09:31:58.764Z,98579.63
2023-03-08T09:34:30.398Z,98568.69
2023-03-08T09:36:59.545Z,98563.78
2023-03-08T09:39:29.249Z,98559.69
2023-03-08T09:42:00.528Z,98539.31
2023-03-08T09:44:53.925Z,98553.78
2023-03-08T09:47:34.681Z,98544.34
2023-03-08T09:50:16.581Z,98537.59
2023-03-08T09:52:51.727Z,98537.69
2023-03-08T09:55:31.605Z,98530.19
2023-03-08T09:58:03.919Z,98496.19
2023-03-08T10:00:50.012Z,98509.91
2023-03-08T10:03:51.774Z,98505.72
2023-03-08T10:06:30.980Z,98486.13
2023-03-08T10:09:10.927Z,98485.22
2023-03-08T10:11:47.884Z,98487.66
2023-03-08T10:14:28.469Z,98479.97
2023-03-08T10:17:01.677Z,98430.56
2023-03-08T10:19:36.651Z,98475.81
2023-03-08T10:22:11.404Z,98468.13
2023-03-08T10:24:47.105Z,98434.16
2023-03-08T10:27:21.751Z,98458.84
2023-03-08T10:29:52.356Z,98455.38
2023-03-08T10:32:22.191Z,98444.34
2023-03-08T10:34:52.442Z,98442.63
2023-03-08T10:37:24.674Z,98409.38
2023-03-08T10:39:57.004Z,98448.59
2023-03-08T10:42:28.920Z,98427.41
2023-03-08T10:45:02.173Z,98443.53
2023-03-08T10:47:35.862Z,98440.16
2023-03-08T10:50:11.495Z,98427.44
2023-03-08T10:52:48.872Z,98401.06
2023-03-08T10:55:20.802Z,98416.41
2023-03-08T10:57:53.732Z,98403.69
2023-03-08T11:00:42.258Z,98391.75
2023-03-08T11:03:18.443Z,98376.38
2023-03-08T11:05:57.642Z,98391.69
2023-03-08T11:08:31.369Z,98396.00
2023-03-08T11:11:06.777Z,98397.75
2023-03-08T11:13:38.078Z,98379.09
2023-03-08T11:16:23.417Z,98351.88
2023-03-08T11:19:04.988Z,98363.78
2023-03-08T11:21:43.074Z,98348.47
2023-03-08T11:24:25.592Z,98356.13
2023-03-08T11:27:08.107Z,98351.88
2023-03-08T11:29:52.092Z,98346.78
2023-03-08T11:32:38.428Z,98327.22
2023-03-08T11:35:24.386Z,98311.94
2023-03-08T11:38:01.826Z,98325.56
2023-03-08T11:40:45.186Z,98304.28
2023-03-08T11:43:30.118Z,98290.69
2023-03-08T11:46:07.833Z,98295.78
2023-03-08T11:48:57.391Z,98297.47
2023-03-08T11:51:39.796Z,98266.03
2023-03-08T11:54:17.896Z,98285.59
2023-03-08T11:59:39.574Z,98293.25
2023-03-08T12:05:04.222Z,98260.94
2023-03-08T12:07:38.826Z,98268.59
2023-03-08T12:10:17.779Z,98259.25
2023-03-08T12:12:57.999Z,98248.22
2023-03-08T12:15:32.779Z,98247.34
2023-03-08T12:18:08.353Z,98250.75
2023-03-08T12:20:46.019Z,98242.25
2023-03-08T12:23:27.082Z,98237.16
2023-03-08T12:26:01.556Z,98238.88
2023-03-08T12:28:36.597Z,98212.53
2023-03-08T12:31:28.674Z,98233.78
2023-03-08T12:34:05.036Z,98220.16
2023-03-08T12:36:41.515Z,98215.91
2023-03-08T12:39:26.718Z,98183.63
2023-03-08T12:42:01.820Z,98197.22
2023-03-08T12:53:02.908Z,98176.75
2023-03-08T12:55:33.125Z,98175.03
2023-03-08T12:58:04.657Z,98173.34
2023-03-08T13:00:37.241Z,98166.56
2023-03-08T13:03:08.875Z,98161.53
2023-03-08T13:05:39.673Z,98147.09
2023-03-08T13:08:42.589Z,98152.22
2023-03-08T13:11:15.832Z,98139.50
2023-03-08T13:13:55.630Z,98131.03
2023-03-08T13:16:33.634Z,98108.13
2023-03-08T13:19:09.024Z,98129.31
2023-03-08T13:21:45.504Z,98116.59
2023-03-08T13:24:23.218Z,98109.78
2023-03-08T13:27:06.675Z,98119.97
2023-03-08T13:29:36.740Z,98056.31
2023-03-08T13:32:15.207Z,98074.13
2023-03-08T13:34:50.978Z,98094.53
2023-03-08T13:37:25.471Z,98090.28
2023-03-08T13:40:06.726Z,98090.28
2023-03-08T13:42:35.911Z,98068.19
2023-03-08T13:45:10.702Z,98081.72
2023-03-08T13:47:41.286Z,98063.91
2023-03-08T13:50:26.028Z,98062.19
2023-03-08T13:52:55.966Z,98062.19
2023-03-08T13:55:37.992Z,98052.84
2023-03-08T13:58:07.858Z,98044.34
2023-03-08T14:00:38.003Z,98031.63
2023-03-08T14:03:08.294Z,98048.56
2023-03-08T14:05:45.393Z,98034.13
2023-03-08T14:08:21.520Z,98014.56
2023-03-08T14:11:00.819Z,98031.50
2023-03-08T14:13:32.765Z,98017.97
2023-03-08T14:16:08.670Z,98015.41
2023-03-08T14:18:41.292Z,98006.88
2023-03-08T14:21:17.191Z,98005.09
2023-03-08T14:23:50.961Z,97975.38
2023-03-08T14:26:33.328Z,97997.41
2023-03-08T14:29:21.349Z,97974.56
2023-03-08T14:31:59.968Z,97975.38
2023-03-08T14:34:33.428Z,97969.38
2023-03-08T14:37:05.370Z,97970.22
2023-03-08T14:39:35.175Z,97956.69
2023-03-08T14:42:22.185Z,97955.81
2023-03-08T14:44:53.841Z,97938.81
2023-03-08T14:47:25.805Z,97938.84
2023-03-08T14:50:03.562Z,97937.94
2023-03-08T14:52:37.101Z,97934.53
2023-03-08T14:55:24.069Z,97925.22
2023-03-08T14:57:58.235Z,97895.47
2023-03-08T15:00:29.367Z,97879.38
2023-03-08T15:03:03.155Z,97911.63
2023-03-08T15:05:32.748Z,97898.09
2023-03-08T15:08:03.548Z,97910.78
2023-03-08T15:10:36.786Z,97893.81
2023-03-08T15:13:13.800Z,97892.16
2023-03-08T15:15:43.203Z,97882.00
2023-03-08T15:18:17.065Z,97874.38
2023-03-08T15:20:49.723Z,97876.91
2023-03-08T15:23:22.227Z,97862.50
2023-03-08T15:25:52.132Z,97859.97
2023-03-08T15:28:35.481Z,97867.59
2023-03-08T15:31:04.959Z,97857.44
2023-03-08T15:33:34.048Z,97865.88
2023-03-08T15:36:09.020Z,97848.16
2023-03-08T15:38:38.279Z,97853.22
2023-03-08T15:41:07.552Z,97848.16
2023-03-08T15:43:38.658Z,97845.63
2023-03-08T15:46:13.915Z,97816.00
2023-03-08T15:48:46.888Z,97824.47
2023-03-08T15:51:20.153Z,97826.19
2023-03-08T15:53:54.655Z,97806.75
2023-03-08T15:56:25.164Z,97813.50
2023-03-08T15:59:01.970Z,97797.44
2023-03-08T16:01:32.902Z,97804.19
2023-03-08T16:04:07.695Z,97791.50
2023-03-08T16:06:36.925Z,97787.31
2023-03-08T16:09:06.348Z,97792.41
2023-03-08T16:11:35.815Z,97781.44
2023-03-08T16:14:06.987Z,97780.56
2023-03-08T16:16:45.219Z,97736.56
2023-03-08T16:19:15.232Z,97771.31
2023-03-08T16:21:44.474Z,97753.50
2023-03-08T16:24:18.922Z,97767.09
2023-03-08T16:26:53.234Z,97761.19
2023-03-08T16:29:27.543Z,97756.94
2023-03-08T16:31:57.674Z,97752.78
2023-03-08T16:34:27.397Z,97747.72
2023-03-08T16:36:57.022Z,97742.66
2023-03-08T16:39:31.306Z,97740.13
2023-03-08T16:42:00.427Z,97725.75
2023-03-08T16:44:38.268Z,97728.31
2023-03-08T16:47:07.953Z,97721.53
2023-03-08T16:49:37.936Z,97729.13
2023-03-08T16:52:13.641Z,97717.28
2023-03-08T16:54:42.964Z,97691.91
2023-03-08T16:57:19.940Z,97728.31
2023-03-08T16:59:51.946Z,97726.66
2023-03-08T17:02:22.805Z,97722.41
2023-03-08T17:04:51.965Z,97713.97
2023-03-08T17:07:21.042Z,97704.66
2023-03-08T17:09:50.338Z,97706.34
2023-03-08T17:12:19.880Z,97686.88
2023-03-08T17:14:57.397Z,97678.44
2023-03-08T17:17:31.678Z,97675.06
2023-03-08T17:20:00.959Z,97682.66
2023-03-08T17:22:33.221Z,97675.91
2023-03-08T17:25:02.636Z,97678.44
2023-03-08T17:27:32.498Z,97677.59
2023-03-08T17:30:13.810Z,97673.38
2023-03-08T17:32:43.054Z,97663.22
2023-03-08T17:35:12.442Z,97655.59
2023-03-08T17:37:42.009Z,97652.22
2023-03-08T17:40:13.688Z,97670.00
2023-03-08T17:42:43.516Z,97649.69
2023-03-08T17:45:15.332Z,97645.41
2023-03-08T17:47:44.387Z,97642.03
2023-03-08T17:50:14.808Z,97637.78
2023-03-08T17:52:44.006Z,97632.72
2023-03-08T17:55:13.479Z,97625.97
2023-03-08T17:57:42.762Z,97588.75
2023-03-08T18:00:15.751Z,97613.25
2023-03-08T18:02:45.521Z,97607.34
2023-03-08T18:05:15.819Z,97629.31
2023-03-08T18:07:45.392Z,97626.78
2023-03-08T18:10:14.679Z,97610.69
2023-03-08T18:12:43.949Z,97617.41
2023-03-08T18:15:15.558Z,97614.06
2023-03-08T18:17:49.898Z,97610.66
2023-03-08T18:20:20.221Z,97608.09
2023-03-08T18:22:50.419Z,97568.38
2023-03-08T18:25:20.441Z,97595.38
2023-03-08T18:27:49.988Z,97563.25
2023-03-08T18:30:22.489Z,97584.38
2023-03-08T18:32:51.873Z,97591.09
2023-03-08T18:35:20.996Z,97590.22
2023-03-08T18:37:55.333Z,97575.84
2023-03-08T18:40:26.578Z,97576.66
2023-03-08T18:42:56.070Z,97568.19
2023-03-08T18:45:28.271Z,97578.34
2023-03-08T18:47:57.547Z,97571.59
2023-03-08T18:50:27.261Z,97564.81
2023-03-08T18:53:01.578Z,97576.66
2023-03-08T18:55:30.859Z,97573.22
2023-03-08T18:58:00.120Z,97564.75
2023-03-08T19:00:31.418Z,97561.31
2023-03-08T19:03:00.642Z,97574.03
2023-03-08T19:05:29.799Z,97574.88
2023-03-08T19:07:58.906Z,97563.03
2023-03-08T19:10:28.153Z,97568.94
2023-03-08T19:12:57.368Z,97585.00
2023-03-08T19:15:26.682Z,97590.91
2023-03-08T19:17:59.592Z,97571.44
2023-03-08T19:20:29.728Z,97561.38
2023-03-08T19:22:58.855Z,97575.59
2023-03-08T19:25:34.400Z,97579.03
2023-03-08T19:28:12.046Z,97593.44
2023-03-08T19:30:46.535Z,97523.31
2023-03-08T19:33:29.663Z,97581.59
2023-03-08T19:36:00.516Z,97580.72
2023-03-08T19:38:29.772Z,97583.25
2023-03-08T19:41:01.471Z,97558.69
2023-03-08T19:43:30.714Z,97546.03
2023-03-08T19:46:02.099Z,97529.97
2023-03-08T19:48:34.018Z,97535.94
2023-03-08T19:51:04.722Z,97558.72
2023-03-08T19:53:33.818Z,97564.69
2023-03-08T19:56:14.947Z,97547.84
2023-03-08T19:58:49.450Z,97549.56
2023-03-08T20:01:21.224Z,97582.50
2023-03-08T20:03:52.643Z,97613.88
2023-03-08T20:06:27.689Z,97599.47
2023-03-08T20:08:57.722Z,97601.97
2023-03-08T20:11:27.104Z,97618.09
2023-03-08T20:14:04.236Z,97613.00
2023-03-08T20:16:33.760Z,97598.56
2023-03-08T20:19:05.299Z,97595.97
2023-03-08T20:21:34.630Z,97614.63
2023-03-08T20:24:03.849Z,97609.53
2023-03-08T20:26:42.555Z,97600.22
2023-03-08T20:29:11.822Z,97599.34
2023-03-08T20:31:41.170Z,97619.72
2023-03-08T20:34:12.697Z,97605.31
2023-03-08T20:36:42.046Z,97603.69
2023-03-08T20:39:14.789Z,97614.72
2023-03-08T20:44:24.451Z,97624.13
2023-03-08T20:46:53.649Z,97608.91
2023-03-08T20:49:30.930Z,97614.00
2023-03-08T20:52:00.519Z,97614.06
2023-03-08T20:54:29.689Z,97603.09
2023-03-08T20:56:59.363Z,97613.19
2023-03-08T20:59:29.821Z,97595.50
2023-03-08T21:04:36.450Z,97623.44
2023-03-08T21:07:07.091Z,97620.88
2023-03-08T21:09:37.811Z,97624.28
2023-03-08T21:12:12.032Z,97629.34
2023-03-08T21:14:41.266Z,97654.75
2023-03-08T21:17:10.442Z,97636.16
2023-03-08T21:19:41.727Z,97633.59
2023-03-08T21:22:13.326Z,97645.44
2023-03-08T21:24:42.610Z,97653.91
2023-03-08T21:27:13.360Z,97644.59
2023-03-08T21:29:47.037Z,97604.00
2023-03-08T21:32:16.240Z,97660.66
2023-03-08T21:34:47.450Z,97667.44
2023-03-08T21:37:16.715Z,97630.19
2023-03-08T21:39:45.934Z,97653.03
2023-03-08T21:42:15.217Z,97658.13
2023-03-08T21:44:44.441Z,97653.06
2023-03-08T21:47:13.860Z,97654.72
2023-03-08T21:49:48.625Z,97669.13
2023-03-08T21:52:19.880Z,97653.91
2023-03-08T21:54:49.130Z,97650.53
2023-03-08T21:57:18.227Z,97636.97
2023-03-08T21:59:47.490Z,97664.03
2023-03-08T22:02:16.634Z,97667.41
2023-03-08T22:04:45.833Z,97675.88
2023-03-08T22:07:14.929Z,97680.09
2023-03-08T22:09:46.217Z,97681.78
2023-03-08T22:12:15.378Z,97681.75
2023-03-08T22:14:44.588Z,97690.19
2023-03-08T22:17:15.310Z,97675.81
2023-03-08T22:19:44.528Z,97698.63
2023-03-08T22:22:13.757Z,97692.72
2023-03-08T22:24:47.987Z,97707.06
2023-03-08T22:27:19.250Z,97670.69
2023-03-08T22:32:25.111Z,97698.63
2023-03-08T22:34:54.198Z,97674.91
2023-03-08T22:37:23.848Z,97707.06
2023-03-08T22:39:52.960Z,97707.03
2023-03-08T22:42:24.240Z,97726.50
2023-03-08T22:45:00.130Z,97737.47
2023-03-08T22:47:34.284Z,97707.09
2023-03-08T22:50:09.841Z,97718.06
2023-03-08T22:52:39.026Z,97734.13
2023-03-08T22:55:09.721Z,97746.78
2023-03-08T22:57:40.816Z,97736.53
2023-03-08T23:00:13.920Z,97740.75
2023-03-08T23:05:15.171Z,97753.34
2023-03-08T23:07:45.796Z,97751.72
2023-03-08T23:10:16.231Z,97751.69
2023-03-08T23:12:53.571Z,97752.53
2023-03-08T23:15:22.764Z,97730.47
2023-03-08T23:17:51.995Z,97756.66
2023-03-08T23:20:22.057Z,97765.19
2023-03-08T23:22:53.467Z,97750.91
2023-03-08T23:25:27.666Z,97758.56
2023-03-08T23:27:58.752Z,97751.88
2023-03-08T23:30:29.856Z,97763.75
2023-03-08T23:32:59.121Z,97760.41
2023-03-08T23:35:28.239Z,97761.28
2023-03-08T23:37:57.375Z,97737.56
2023-03-08T23:40:26.545Z,97747.72
2023-03-08T23:42:55.681Z,97759.56
2023-03-08T23:45:26.836Z,97766.34
2023-03-08T23:47:56.112Z,97754.41
2023-03-08T23:50:25.358Z,97756.03
2023-03-08T23:52:54.637Z,97761.94
2023-03-08T23:55:23.702Z,97761.06
2023-03-08T23:57:52.931Z,97764.38
